sensor_id;sensor_type;location;lat;lon;timestamp;P1;durP1;ratioP1;P2;durP2;ratioP2
25917;SDS011;13899;51.174;4.456;2023-05-29T00:01:12;11.02;;;7.40;;
25917;SDS011;13899;51.174;4.456;2023-05-29T00:03:37;9.50;;;6.93;;
25917;SDS011;13899;51.174;4.456;2023-05-29T00:06:03;8.82;;;6.95;;
25917;SDS011;13899;51.174;4.456;2023-05-29T00:08:30;7.53;;;5.95;;
25917;SDS011;13899;51.174;4.456;2023-05-29T00:10:56;8.73;;;6.13;;
25917;SDS011;13899;51.174;4.456;2023-05-29T00:13:22;9.93;;;6.37;;
25917;SDS011;13899;51.174;4.456;2023-05-29T00:15:48;8.32;;;6.53;;
25917;SDS011;13899;51.174;4.456;2023-05-29T00:18:14;10.77;;;6.70;;
25917;SDS011;13899;51.174;4.456;2023-05-29T00:20:39;9.52;;;6.65;;
25917;SDS011;13899;51.174;4.456;2023-05-29T00:23:05;12.40;;;6.22;;
25917;SDS011;13899;51.174;4.456;2023-05-29T00:25:31;12.00;;;6.80;;
25917;SDS011;13899;51.174;4.456;2023-05-29T00:27:57;10.55;;;6.78;;
25917;SDS011;13899;51.174;4.456;2023-05-29T00:30:22;8.98;;;6.85;;
25917;SDS011;13899;51.174;4.456;2023-05-29T00:32:48;8.07;;;6.28;;
25917;SDS011;13899;51.174;4.456;2023-05-29T00:35:14;9.77;;;6.60;;
25917;SDS011;13899;51.174;4.456;2023-05-29T00:37:40;11.57;;;6.43;;
25917;SDS011;13899;51.174;4.456;2023-05-29T00:40:06;13.57;;;6.47;;
25917;SDS011;13899;51.174;4.456;2023-05-29T00:42:32;9.88;;;6.38;;
25917;SDS011;13899;51.174;4.456;2023-05-29T00:44:57;8.30;;;5.90;;
25917;SDS011;13899;51.174;4.456;2023-05-29T00:47:23;15.95;;;7.30;;
25917;SDS011;13899;51.174;4.456;2023-05-29T00:49:49;10.33;;;6.20;;
25917;SDS011;13899;51.174;4.456;2023-05-29T00:52:17;10.68;;;5.43;;
25917;SDS011;13899;51.174;4.456;2023-05-29T00:54:43;9.85;;;5.88;;
25917;SDS011;13899;51.174;4.456;2023-05-29T01:02:02;9.70;;;5.83;;
25917;SDS011;13899;51.174;4.456;2023-05-29T01:04:29;9.37;;;5.30;;
25917;SDS011;13899;51.174;4.456;2023-05-29T01:06:54;9.75;;;4.93;;
25917;SDS011;13899;51.174;4.456;2023-05-29T01:09:21;9.43;;;5.50;;
25917;SDS011;13899;51.174;4.456;2023-05-29T01:14:42;14.88;;;4.82;;
25917;SDS011;13899;51.174;4.456;2023-05-29T01:22:19;10.05;;;4.03;;
25917;SDS011;13899;51.174;4.456;2023-05-29T01:25:11;11.23;;;3.35;;
25917;SDS011;13899;51.174;4.456;2023-05-29T01:28:03;11.60;;;3.80;;
25917;SDS011;13899;51.174;4.456;2023-05-29T01:30:31;7.35;;;3.97;;
25917;SDS011;13899;51.174;4.456;2023-05-29T01:35:24;10.83;;;3.93;;
25917;SDS011;13899;51.174;4.456;2023-05-29T01:37:50;12.07;;;4.15;;
25917;SDS011;13899;51.174;4.456;2023-05-29T01:40:16;9.77;;;3.63;;
25917;SDS011;13899;51.174;4.456;2023-05-29T01:42:42;8.77;;;2.95;;
25917;SDS011;13899;51.174;4.456;2023-05-29T01:45:08;13.20;;;4.10;;
25917;SDS011;13899;51.174;4.456;2023-05-29T01:47:35;6.93;;;3.28;;
25917;SDS011;13899;51.174;4.456;2023-05-29T01:50:01;8.07;;;2.80;;
25917;SDS011;13899;51.174;4.456;2023-05-29T01:52:29;9.50;;;3.40;;
25917;SDS011;13899;51.174;4.456;2023-05-29T01:54:55;9.38;;;3.50;;
25917;SDS011;13899;51.174;4.456;2023-05-29T01:57:21;11.18;;;3.17;;
25917;SDS011;13899;51.174;4.456;2023-05-29T01:59:47;10.70;;;4.10;;
25917;SDS011;13899;51.174;4.456;2023-05-29T02:02:13;9.98;;;3.10;;
25917;SDS011;13899;51.174;4.456;2023-05-29T02:04:39;12.32;;;3.22;;
25917;SDS011;13899;51.174;4.456;2023-05-29T02:07:04;9.27;;;3.63;;
25917;SDS011;13899;51.174;4.456;2023-05-29T02:11:57;5.63;;;2.73;;
25917;SDS011;13899;51.174;4.456;2023-05-29T02:14:23;12.27;;;3.60;;
25917;SDS011;13899;51.174;4.456;2023-05-29T02:16:51;11.90;;;3.63;;
25917;SDS011;13899;51.174;4.456;2023-05-29T02:19:17;17.60;;;3.58;;
25917;SDS011;13899;51.174;4.456;2023-05-29T02:21:46;9.38;;;2.67;;
25917;SDS011;13899;51.174;4.456;2023-05-29T02:24:13;10.25;;;3.05;;
25917;SDS011;13899;51.174;4.456;2023-05-29T02:26:39;9.73;;;2.72;;
25917;SDS011;13899;51.174;4.456;2023-05-29T02:29:05;12.95;;;3.42;;
25917;SDS011;13899;51.174;4.456;2023-05-29T02:31:30;9.48;;;2.40;;
25917;SDS011;13899;51.174;4.456;2023-05-29T02:33:56;12.25;;;3.53;;
25917;SDS011;13899;51.174;4.456;2023-05-29T02:36:22;10.25;;;2.75;;
25917;SDS011;13899;51.174;4.456;2023-05-29T02:38:47;9.93;;;3.03;;
25917;SDS011;13899;51.174;4.456;2023-05-29T02:41:13;11.68;;;3.58;;
25917;SDS011;13899;51.174;4.456;2023-05-29T02:43:39;7.82;;;3.08;;
25917;SDS011;13899;51.174;4.456;2023-05-29T02:46:04;10.27;;;3.27;;
25917;SDS011;13899;51.174;4.456;2023-05-29T02:48:30;9.73;;;2.80;;
25917;SDS011;13899;51.174;4.456;2023-05-29T02:50:56;7.20;;;3.13;;
25917;SDS011;13899;51.174;4.456;2023-05-29T02:53:22;8.52;;;2.95;;
25917;SDS011;13899;51.174;4.456;2023-05-29T02:55:48;12.63;;;2.90;;
25917;SDS011;13899;51.174;4.456;2023-05-29T02:58:14;9.70;;;3.10;;
25917;SDS011;13899;51.174;4.456;2023-05-29T03:03:06;8.90;;;2.37;;
25917;SDS011;13899;51.174;4.456;2023-05-29T03:05:32;8.23;;;2.40;;
25917;SDS011;13899;51.174;4.456;2023-05-29T03:07:58;14.15;;;2.53;;
25917;SDS011;13899;51.174;4.456;2023-05-29T03:10:23;14.20;;;3.97;;
25917;SDS011;13899;51.174;4.456;2023-05-29T03:12:49;14.02;;;3.03;;
25917;SDS011;13899;51.174;4.456;2023-05-29T03:15:16;11.10;;;3.17;;
25917;SDS011;13899;51.174;4.456;2023-05-29T03:17:45;11.05;;;3.15;;
25917;SDS011;13899;51.174;4.456;2023-05-29T03:20:11;11.65;;;2.72;;
25917;SDS011;13899;51.174;4.456;2023-05-29T03:22:37;9.50;;;2.85;;
25917;SDS011;13899;51.174;4.456;2023-05-29T03:25:03;8.80;;;2.85;;
25917;SDS011;13899;51.174;4.456;2023-05-29T03:27:29;10.27;;;3.10;;
25917;SDS011;13899;51.174;4.456;2023-05-29T03:29:55;8.93;;;2.65;;
25917;SDS011;13899;51.174;4.456;2023-05-29T03:32:22;15.48;;;3.33;;
25917;SDS011;13899;51.174;4.456;2023-05-29T03:34:48;11.77;;;3.10;;
25917;SDS011;13899;51.174;4.456;2023-05-29T03:37:14;9.85;;;3.03;;
25917;SDS011;13899;51.174;4.456;2023-05-29T03:39:39;15.15;;;3.45;;
25917;SDS011;13899;51.174;4.456;2023-05-29T03:42:05;11.50;;;3.20;;
25917;SDS011;13899;51.174;4.456;2023-05-29T03:44:31;10.75;;;3.75;;
25917;SDS011;13899;51.174;4.456;2023-05-29T03:46:56;9.70;;;2.97;;
25917;SDS011;13899;51.174;4.456;2023-05-29T03:49:22;12.60;;;3.00;;
25917;SDS011;13899;51.174;4.456;2023-05-29T03:51:48;12.70;;;3.05;;
25917;SDS011;13899;51.174;4.456;2023-05-29T03:54:14;9.93;;;3.78;;
25917;SDS011;13899;51.174;4.456;2023-05-29T03:56:40;8.10;;;2.83;;
25917;SDS011;13899;51.174;4.456;2023-05-29T03:59:06;11.33;;;3.23;;
25917;SDS011;13899;51.174;4.456;2023-05-29T04:01:31;8.35;;;3.10;;
25917;SDS011;13899;51.174;4.456;2023-05-29T04:03:57;12.77;;;3.70;;
25917;SDS011;13899;51.174;4.456;2023-05-29T04:06:23;10.35;;;2.65;;
25917;SDS011;13899;51.174;4.456;2023-05-29T04:08:48;14.80;;;3.33;;
25917;SDS011;13899;51.174;4.456;2023-05-29T04:11:15;12.27;;;2.90;;
25917;SDS011;13899;51.174;4.456;2023-05-29T04:13:40;13.88;;;3.42;;
25917;SDS011;13899;51.174;4.456;2023-05-29T04:16:06;10.73;;;2.92;;
25917;SDS011;13899;51.174;4.456;2023-05-29T04:18:32;21.33;;;3.90;;
25917;SDS011;13899;51.174;4.456;2023-05-29T04:20:58;15.38;;;3.42;;
25917;SDS011;13899;51.174;4.456;2023-05-29T04:23:24;11.68;;;2.80;;
25917;SDS011;13899;51.174;4.456;2023-05-29T04:25:49;12.23;;;3.15;;
25917;SDS011;13899;51.174;4.456;2023-05-29T04:28:16;12.77;;;2.90;;
25917;SDS011;13899;51.174;4.456;2023-05-29T04:30:42;14.13;;;2.93;;
25917;SDS011;13899;51.174;4.456;2023-05-29T04:33:07;13.13;;;4.38;;
25917;SDS011;13899;51.174;4.456;2023-05-29T04:35:34;11.13;;;3.20;;
25917;SDS011;13899;51.174;4.456;2023-05-29T04:38:00;9.93;;;2.85;;
25917;SDS011;13899;51.174;4.456;2023-05-29T04:40:26;9.18;;;2.42;;
25917;SDS011;13899;51.174;4.456;2023-05-29T04:42:52;11.55;;;2.55;;
25917;SDS011;13899;51.174;4.456;2023-05-29T04:45:21;7.20;;;2.15;;
25917;SDS011;13899;51.174;4.456;2023-05-29T04:47:47;13.18;;;2.75;;
25917;SDS011;13899;51.174;4.456;2023-05-29T04:50:13;15.45;;;4.65;;
25917;SDS011;13899;51.174;4.456;2023-05-29T04:52:39;13.18;;;2.92;;
25917;SDS011;13899;51.174;4.456;2023-05-29T04:55:05;11.20;;;2.58;;
25917;SDS011;13899;51.174;4.456;2023-05-29T04:57:31;10.43;;;3.35;;
25917;SDS011;13899;51.174;4.456;2023-05-29T04:59:57;11.00;;;3.13;;
25917;SDS011;13899;51.174;4.456;2023-05-29T05:02:23;11.55;;;3.13;;
25917;SDS011;13899;51.174;4.456;2023-05-29T05:04:48;14.47;;;3.10;;
25917;SDS011;13899;51.174;4.456;2023-05-29T05:07:15;12.27;;;2.90;;
25917;SDS011;13899;51.174;4.456;2023-05-29T05:09:41;8.20;;;3.22;;
25917;SDS011;13899;51.174;4.456;2023-05-29T05:12:07;12.07;;;3.55;;
25917;SDS011;13899;51.174;4.456;2023-05-29T05:14:32;15.73;;;3.67;;
25917;SDS011;13899;51.174;4.456;2023-05-29T05:16:59;12.02;;;2.90;;
25917;SDS011;13899;51.174;4.456;2023-05-29T05:19:24;9.00;;;2.78;;
25917;SDS011;13899;51.174;4.456;2023-05-29T05:21:50;10.55;;;2.67;;
25917;SDS011;13899;51.174;4.456;2023-05-29T05:24:16;9.43;;;2.47;;
25917;SDS011;13899;51.174;4.456;2023-05-29T05:26:41;11.37;;;2.77;;
25917;SDS011;13899;51.174;4.456;2023-05-29T05:29:07;13.00;;;3.50;;
25917;SDS011;13899;51.174;4.456;2023-05-29T05:31:32;7.65;;;2.40;;
25917;SDS011;13899;51.174;4.456;2023-05-29T05:33:58;12.70;;;3.57;;
25917;SDS011;13899;51.174;4.456;2023-05-29T05:36:23;7.30;;;2.53;;
25917;SDS011;13899;51.174;4.456;2023-05-29T05:38:50;10.60;;;2.65;;
25917;SDS011;13899;51.174;4.456;2023-05-29T05:41:15;15.90;;;3.38;;
25917;SDS011;13899;51.174;4.456;2023-05-29T05:43:41;7.75;;;2.50;;
25917;SDS011;13899;51.174;4.456;2023-05-29T05:46:06;11.57;;;2.73;;
25917;SDS011;13899;51.174;4.456;2023-05-29T05:48:32;11.03;;;2.80;;
25917;SDS011;13899;51.174;4.456;2023-05-29T05:50:57;9.07;;;2.28;;
25917;SDS011;13899;51.174;4.456;2023-05-29T05:53:23;13.77;;;2.50;;
25917;SDS011;13899;51.174;4.456;2023-05-29T05:55:49;14.48;;;2.58;;
25917;SDS011;13899;51.174;4.456;2023-05-29T05:58:14;8.05;;;2.45;;
25917;SDS011;13899;51.174;4.456;2023-05-29T06:00:40;8.77;;;2.70;;
25917;SDS011;13899;51.174;4.456;2023-05-29T06:05:32;13.87;;;2.90;;
25917;SDS011;13899;51.174;4.456;2023-05-29T06:08:01;8.52;;;2.40;;
25917;SDS011;13899;51.174;4.456;2023-05-29T06:10:27;7.05;;;2.67;;
25917;SDS011;13899;51.174;4.456;2023-05-29T06:12:52;8.40;;;2.28;;
25917;SDS011;13899;51.174;4.456;2023-05-29T06:15:18;8.25;;;2.60;;
25917;SDS011;13899;51.174;4.456;2023-05-29T06:17:44;11.07;;;3.00;;
25917;SDS011;13899;51.174;4.456;2023-05-29T06:20:10;9.00;;;2.88;;
25917;SDS011;13899;51.174;4.456;2023-05-29T06:22:39;6.55;;;2.35;;
25917;SDS011;13899;51.174;4.456;2023-05-29T06:25:05;9.60;;;2.38;;
25917;SDS011;13899;51.174;4.456;2023-05-29T06:27:31;6.50;;;2.20;;
25917;SDS011;13899;51.174;4.456;2023-05-29T06:29:56;6.38;;;1.95;;
25917;SDS011;13899;51.174;4.456;2023-05-29T06:32:23;9.00;;;2.70;;
25917;SDS011;13899;51.174;4.456;2023-05-29T06:34:49;9.13;;;2.22;;
25917;SDS011;13899;51.174;4.456;2023-05-29T06:37:14;13.35;;;2.63;;
25917;SDS011;13899;51.174;4.456;2023-05-29T06:39:40;5.43;;;1.92;;
25917;SDS011;13899;51.174;4.456;2023-05-29T06:42:09;9.23;;;2.13;;
25917;SDS011;13899;51.174;4.456;2023-05-29T06:44:35;10.00;;;2.55;;
25917;SDS011;13899;51.174;4.456;2023-05-29T06:47:00;7.72;;;2.40;;
25917;SDS011;13899;51.174;4.456;2023-05-29T06:49:26;10.80;;;1.88;;
25917;SDS011;13899;51.174;4.456;2023-05-29T06:51:51;5.63;;;2.25;;
25917;SDS011;13899;51.174;4.456;2023-05-29T06:54:17;9.27;;;3.45;;
25917;SDS011;13899;51.174;4.456;2023-05-29T06:56:43;6.60;;;2.10;;
25917;SDS011;13899;51.174;4.456;2023-05-29T06:59:08;9.63;;;2.65;;
25917;SDS011;13899;51.174;4.456;2023-05-29T07:01:34;6.00;;;1.87;;
25917;SDS011;13899;51.174;4.456;2023-05-29T07:04:00;7.60;;;2.07;;
25917;SDS011;13899;51.174;4.456;2023-05-29T07:06:26;6.63;;;1.95;;
25917;SDS011;13899;51.174;4.456;2023-05-29T07:08:51;7.33;;;1.50;;
25917;SDS011;13899;51.174;4.456;2023-05-29T07:11:17;13.73;;;2.10;;
25917;SDS011;13899;51.174;4.456;2023-05-29T07:13:42;10.77;;;2.30;;
25917;SDS011;13899;51.174;4.456;2023-05-29T07:16:08;7.10;;;2.05;;
25917;SDS011;13899;51.174;4.456;2023-05-29T07:18:33;5.90;;;1.87;;
25917;SDS011;13899;51.174;4.456;2023-05-29T07:20:59;9.98;;;2.10;;
25917;SDS011;13899;51.174;4.456;2023-05-29T07:23:26;9.57;;;2.33;;
25917;SDS011;13899;51.174;4.456;2023-05-29T07:25:51;9.48;;;3.05;;
25917;SDS011;13899;51.174;4.456;2023-05-29T07:28:17;9.30;;;2.03;;
25917;SDS011;13899;51.174;4.456;2023-05-29T07:30:43;16.38;;;2.30;;
25917;SDS011;13899;51.174;4.456;2023-05-29T07:33:08;14.88;;;2.30;;
25917;SDS011;13899;51.174;4.456;2023-05-29T07:35:34;11.43;;;2.50;;
25917;SDS011;13899;51.174;4.456;2023-05-29T07:38:00;11.88;;;3.08;;
25917;SDS011;13899;51.174;4.456;2023-05-29T07:40:26;10.20;;;2.05;;
25917;SDS011;13899;51.174;4.456;2023-05-29T07:42:52;7.63;;;1.92;;
25917;SDS011;13899;51.174;4.456;2023-05-29T07:45:17;8.73;;;2.20;;
25917;SDS011;13899;51.174;4.456;2023-05-29T07:47:43;12.70;;;3.15;;
25917;SDS011;13899;51.174;4.456;2023-05-29T07:50:08;9.07;;;2.85;;
25917;SDS011;13899;51.174;4.456;2023-05-29T07:52:35;9.02;;;2.10;;
25917;SDS011;13899;51.174;4.456;2023-05-29T07:55:01;7.00;;;2.13;;
25917;SDS011;13899;51.174;4.456;2023-05-29T07:57:27;9.07;;;2.03;;
25917;SDS011;13899;51.174;4.456;2023-05-29T07:59:55;12.27;;;3.30;;
25917;SDS011;13899;51.174;4.456;2023-05-29T08:02:34;7.85;;;2.08;;
25917;SDS011;13899;51.174;4.456;2023-05-29T08:05:01;8.77;;;2.00;;
25917;SDS011;13899;51.174;4.456;2023-05-29T08:07:28;10.57;;;2.13;;
25917;SDS011;13899;51.174;4.456;2023-05-29T08:09:53;12.93;;;2.85;;
25917;SDS011;13899;51.174;4.456;2023-05-29T08:12:19;7.18;;;1.83;;
25917;SDS011;13899;51.174;4.456;2023-05-29T08:14:49;6.82;;;1.95;;
25917;SDS011;13899;51.174;4.456;2023-05-29T08:17:15;9.63;;;2.60;;
25917;SDS011;13899;51.174;4.456;2023-05-29T08:19:41;8.43;;;1.73;;
25917;SDS011;13899;51.174;4.456;2023-05-29T08:22:07;7.37;;;1.90;;
25917;SDS011;13899;51.174;4.456;2023-05-29T08:24:32;8.30;;;1.90;;
25917;SDS011;13899;51.174;4.456;2023-05-29T08:26:58;6.60;;;1.83;;
25917;SDS011;13899;51.174;4.456;2023-05-29T08:29:24;6.07;;;1.60;;
25917;SDS011;13899;51.174;4.456;2023-05-29T08:31:49;8.90;;;2.37;;
25917;SDS011;13899;51.174;4.456;2023-05-29T08:34:15;10.90;;;2.15;;
25917;SDS011;13899;51.174;4.456;2023-05-29T08:36:41;7.28;;;2.45;;
25917;SDS011;13899;51.174;4.456;2023-05-29T08:39:07;8.60;;;2.03;;
25917;SDS011;13899;51.174;4.456;2023-05-29T08:44:13;8.85;;;1.92;;
25917;SDS011;13899;51.174;4.456;2023-05-29T08:46:40;8.57;;;2.15;;
25917;SDS011;13899;51.174;4.456;2023-05-29T08:49:28;12.27;;;2.25;;
25917;SDS011;13899;51.174;4.456;2023-05-29T08:52:03;8.57;;;1.60;;
25917;SDS011;13899;51.174;4.456;2023-05-29T08:54:39;6.07;;;2.20;;
25917;SDS011;13899;51.174;4.456;2023-05-29T08:57:06;4.88;;;1.58;;
25917;SDS011;13899;51.174;4.456;2023-05-29T08:59:32;8.10;;;1.85;;
25917;SDS011;13899;51.174;4.456;2023-05-29T09:01:58;5.28;;;2.33;;
25917;SDS011;13899;51.174;4.456;2023-05-29T09:04:24;8.10;;;1.83;;
25917;SDS011;13899;51.174;4.456;2023-05-29T09:06:49;8.48;;;2.38;;
25917;SDS011;13899;51.174;4.456;2023-05-29T09:09:17;5.50;;;1.50;;
25917;SDS011;13899;51.174;4.456;2023-05-29T09:11:43;5.00;;;1.77;;
25917;SDS011;13899;51.174;4.456;2023-05-29T09:14:12;4.90;;;1.38;;
25917;SDS011;13899;51.174;4.456;2023-05-29T09:16:58;4.47;;;1.58;;
25917;SDS011;13899;51.174;4.456;2023-05-29T09:19:25;5.50;;;1.90;;
25917;SDS011;13899;51.174;4.456;2023-05-29T09:21:51;12.07;;;1.92;;
25917;SDS011;13899;51.174;4.456;2023-05-29T09:24:24;7.32;;;1.70;;
25917;SDS011;13899;51.174;4.456;2023-05-29T09:26:52;5.65;;;1.70;;
25917;SDS011;13899;51.174;4.456;2023-05-29T09:29:18;7.90;;;1.60;;
25917;SDS011;13899;51.174;4.456;2023-05-29T09:31:48;7.10;;;1.85;;
25917;SDS011;13899;51.174;4.456;2023-05-29T09:34:14;5.18;;;1.52;;
25917;SDS011;13899;51.174;4.456;2023-05-29T09:36:40;7.10;;;1.70;;
25917;SDS011;13899;51.174;4.456;2023-05-29T09:39:08;7.65;;;1.75;;
25917;SDS011;13899;51.174;4.456;2023-05-29T09:41:43;7.93;;;2.13;;
25917;SDS011;13899;51.174;4.456;2023-05-29T09:44:13;6.38;;;1.90;;
25917;SDS011;13899;51.174;4.456;2023-05-29T09:46:40;7.22;;;2.38;;
25917;SDS011;13899;51.174;4.456;2023-05-29T09:49:13;4.85;;;1.65;;
25917;SDS011;13899;51.174;4.456;2023-05-29T09:51:41;4.65;;;2.10;;
25917;SDS011;13899;51.174;4.456;2023-05-29T09:54:16;3.72;;;1.25;;
25917;SDS011;13899;51.174;4.456;2023-05-29T09:56:42;3.22;;;1.48;;
25917;SDS011;13899;51.174;4.456;2023-05-29T09:59:12;5.00;;;1.50;;
25917;SDS011;13899;51.174;4.456;2023-05-29T10:01:43;5.50;;;1.55;;
25917;SDS011;13899;51.174;4.456;2023-05-29T10:04:12;6.60;;;1.42;;
25917;SDS011;13899;51.174;4.456;2023-05-29T10:06:41;6.90;;;1.48;;
25917;SDS011;13899;51.174;4.456;2023-05-29T10:09:11;5.53;;;2.05;;
25917;SDS011;13899;51.174;4.456;2023-05-29T10:11:40;7.78;;;1.63;;
25917;SDS011;13899;51.174;4.456;2023-05-29T10:14:08;7.68;;;1.88;;
25917;SDS011;13899;51.174;4.456;2023-05-29T10:16:39;5.78;;;1.55;;
25917;SDS011;13899;51.174;4.456;2023-05-29T10:19:10;6.40;;;1.90;;
25917;SDS011;13899;51.174;4.456;2023-05-29T10:21:39;5.53;;;1.52;;
25917;SDS011;13899;51.174;4.456;2023-05-29T10:24:06;7.18;;;2.55;;
25917;SDS011;13899;51.174;4.456;2023-05-29T10:26:38;6.68;;;2.47;;
25917;SDS011;13899;51.174;4.456;2023-05-29T10:34:43;6.18;;;4.85;;
25917;SDS011;13899;51.174;4.456;2023-05-29T10:40:08;8.30;;;6.13;;
25917;SDS011;13899;51.174;4.456;2023-05-29T10:42:42;7.30;;;6.68;;
25917;SDS011;13899;51.174;4.456;2023-05-29T10:45:10;4.80;;;3.53;;
25917;SDS011;13899;51.174;4.456;2023-05-29T10:47:38;8.32;;;4.03;;
25917;SDS011;13899;51.174;4.456;2023-05-29T10:50:04;5.95;;;5.45;;
25917;SDS011;13899;51.174;4.456;2023-05-29T10:52:31;3.60;;;2.67;;
25917;SDS011;13899;51.174;4.456;2023-05-29T10:55:01;4.38;;;2.85;;
25917;SDS011;13899;51.174;4.456;2023-05-29T10:57:30;6.72;;;4.07;;
25917;SDS011;13899;51.174;4.456;2023-05-29T11:00:06;10.20;;;9.13;;
25917;SDS011;13899;51.174;4.456;2023-05-29T11:02:38;7.22;;;6.53;;
25917;SDS011;13899;51.174;4.456;2023-05-29T11:05:06;6.10;;;5.70;;
25917;SDS011;13899;51.174;4.456;2023-05-29T11:07:51;7.53;;;6.85;;
25917;SDS011;13899;51.174;4.456;2023-05-29T11:10:43;8.95;;;5.75;;
25917;SDS011;13899;51.174;4.456;2023-05-29T11:13:24;5.43;;;4.90;;
25917;SDS011;13899;51.174;4.456;2023-05-29T11:16:03;6.20;;;5.70;;
25917;SDS011;13899;51.174;4.456;2023-05-29T11:18:29;6.63;;;6.03;;
25917;SDS011;13899;51.174;4.456;2023-05-29T11:20:57;6.77;;;4.80;;
25917;SDS011;13899;51.174;4.456;2023-05-29T11:23:26;5.57;;;5.00;;
25917;SDS011;13899;51.174;4.456;2023-05-29T11:25:56;6.25;;;5.45;;
25917;SDS011;13899;51.174;4.456;2023-05-29T11:28:44;6.07;;;5.55;;
25917;SDS011;13899;51.174;4.456;2023-05-29T11:31:18;5.45;;;3.25;;
25917;SDS011;13899;51.174;4.456;2023-05-29T11:33:56;7.30;;;6.60;;
25917;SDS011;13899;51.174;4.456;2023-05-29T11:36:25;8.45;;;7.75;;
25917;SDS011;13899;51.174;4.456;2023-05-29T11:38:51;7.82;;;7.32;;
25917;SDS011;13899;51.174;4.456;2023-05-29T11:41:17;4.47;;;1.67;;
25917;SDS011;13899;51.174;4.456;2023-05-29T11:43:44;5.30;;;1.77;;
25917;SDS011;13899;51.174;4.456;2023-05-29T11:46:15;5.07;;;1.63;;
25917;SDS011;13899;51.174;4.456;2023-05-29T11:48:45;7.15;;;2.47;;
25917;SDS011;13899;51.174;4.456;2023-05-29T11:51:11;5.85;;;1.80;;
25917;SDS011;13899;51.174;4.456;2023-05-29T11:53:39;8.83;;;2.10;;
25917;SDS011;13899;51.174;4.456;2023-05-29T11:56:07;7.03;;;1.88;;
25917;SDS011;13899;51.174;4.456;2023-05-29T11:58:37;7.85;;;7.22;;
25917;SDS011;13899;51.174;4.456;2023-05-29T12:01:04;6.65;;;6.05;;
25917;SDS011;13899;51.174;4.456;2023-05-29T12:03:36;7.95;;;7.35;;
25917;SDS011;13899;51.174;4.456;2023-05-29T12:06:05;6.32;;;5.68;;
25917;SDS011;13899;51.174;4.456;2023-05-29T12:08:32;3.67;;;1.60;;
25917;SDS011;13899;51.174;4.456;2023-05-29T12:10:58;4.03;;;1.60;;
25917;SDS011;13899;51.174;4.456;2023-05-29T12:13:23;4.67;;;1.73;;
25917;SDS011;13899;51.174;4.456;2023-05-29T12:15:53;4.50;;;1.77;;
25917;SDS011;13899;51.174;4.456;2023-05-29T12:18:25;4.88;;;1.55;;
25917;SDS011;13899;51.174;4.456;2023-05-29T12:20:56;3.83;;;1.50;;
25917;SDS011;13899;51.174;4.456;2023-05-29T12:23:25;7.10;;;1.60;;
25917;SDS011;13899;51.174;4.456;2023-05-29T12:25:53;3.15;;;1.45;;
25917;SDS011;13899;51.174;4.456;2023-05-29T12:28:19;7.25;;;6.65;;
25917;SDS011;13899;51.174;4.456;2023-05-29T12:30:46;5.30;;;3.30;;
25917;SDS011;13899;51.174;4.456;2023-05-29T12:33:29;4.47;;;1.90;;
25917;SDS011;13899;51.174;4.456;2023-05-29T12:36:01;9.57;;;8.88;;
25917;SDS011;13899;51.174;4.456;2023-05-29T12:41:34;7.70;;;7.13;;
25917;SDS011;13899;51.174;4.456;2023-05-29T12:44:04;6.78;;;6.32;;
25917;SDS011;13899;51.174;4.456;2023-05-29T12:46:35;6.03;;;1.63;;
25917;SDS011;13899;51.174;4.456;2023-05-29T12:49:11;3.67;;;1.60;;
25917;SDS011;13899;51.174;4.456;2023-05-29T12:51:41;5.22;;;2.03;;
25917;SDS011;13899;51.174;4.456;2023-05-29T12:54:12;5.32;;;1.55;;
25917;SDS011;13899;51.174;4.456;2023-05-29T12:56:41;5.85;;;2.03;;
25917;SDS011;13899;51.174;4.456;2023-05-29T12:59:07;5.53;;;1.85;;
25917;SDS011;13899;51.174;4.456;2023-05-29T13:01:34;7.32;;;2.17;;
25917;SDS011;13899;51.174;4.456;2023-05-29T13:04:04;4.35;;;1.80;;
25917;SDS011;13899;51.174;4.456;2023-05-29T13:06:34;7.28;;;4.75;;
25917;SDS011;13899;51.174;4.456;2023-05-29T13:09:02;3.60;;;1.42;;
25917;SDS011;13899;51.174;4.456;2023-05-29T13:11:28;6.00;;;5.45;;
25917;SDS011;13899;51.174;4.456;2023-05-29T13:13:54;7.50;;;6.90;;
25917;SDS011;13899;51.174;4.456;2023-05-29T13:18:47;8.55;;;7.70;;
25917;SDS011;13899;51.174;4.456;2023-05-29T13:21:17;7.72;;;6.20;;
25917;SDS011;13899;51.174;4.456;2023-05-29T13:23:43;7.33;;;6.63;;
25917;SDS011;13899;51.174;4.456;2023-05-29T13:26:08;9.47;;;7.27;;
25917;SDS011;13899;51.174;4.456;2023-05-29T13:28:36;6.45;;;5.85;;
25917;SDS011;13899;51.174;4.456;2023-05-29T13:31:03;7.80;;;7.07;;
25917;SDS011;13899;51.174;4.456;2023-05-29T13:33:29;5.18;;;1.60;;
25917;SDS011;13899;51.174;4.456;2023-05-29T13:35:54;6.80;;;3.87;;
25917;SDS011;13899;51.174;4.456;2023-05-29T13:38:20;3.87;;;1.50;;
25917;SDS011;13899;51.174;4.456;2023-05-29T13:40:46;5.10;;;3.47;;
25917;SDS011;13899;51.174;4.456;2023-05-29T13:43:12;5.83;;;5.27;;
25917;SDS011;13899;51.174;4.456;2023-05-29T13:45:37;5.53;;;5.03;;
25917;SDS011;13899;51.174;4.456;2023-05-29T13:48:05;6.30;;;5.75;;
25917;SDS011;13899;51.174;4.456;2023-05-29T13:50:31;6.50;;;1.87;;
25917;SDS011;13899;51.174;4.456;2023-05-29T13:52:56;4.37;;;3.70;;
25917;SDS011;13899;51.174;4.456;2023-05-29T13:55:22;4.53;;;2.27;;
25917;SDS011;13899;51.174;4.456;2023-05-29T13:57:48;5.63;;;3.43;;
25917;SDS011;13899;51.174;4.456;2023-05-29T14:00:13;6.60;;;1.37;;
25917;SDS011;13899;51.174;4.456;2023-05-29T14:02:39;5.22;;;1.70;;
25917;SDS011;13899;51.174;4.456;2023-05-29T14:05:05;4.07;;;1.50;;
25917;SDS011;13899;51.174;4.456;2023-05-29T14:07:31;5.63;;;1.73;;
25917;SDS011;13899;51.174;4.456;2023-05-29T14:09:57;7.30;;;6.73;;
25917;SDS011;13899;51.174;4.456;2023-05-29T14:12:23;7.50;;;7.10;;
25917;SDS011;13899;51.174;4.456;2023-05-29T14:14:49;3.72;;;1.40;;
25917;SDS011;13899;51.174;4.456;2023-05-29T14:17:14;4.33;;;1.40;;
25917;SDS011;13899;51.174;4.456;2023-05-29T14:19:40;3.53;;;1.80;;
25917;SDS011;13899;51.174;4.456;2023-05-29T14:22:06;4.55;;;3.90;;
25917;SDS011;13899;51.174;4.456;2023-05-29T14:24:32;5.97;;;4.93;;
25917;SDS011;13899;51.174;4.456;2023-05-29T14:26:57;5.43;;;4.97;;
25917;SDS011;13899;51.174;4.456;2023-05-29T14:29:23;4.28;;;1.20;;
25917;SDS011;13899;51.174;4.456;2023-05-29T14:31:49;3.63;;;3.13;;
25917;SDS011;13899;51.174;4.456;2023-05-29T14:34:15;4.77;;;2.77;;
25917;SDS011;13899;51.174;4.456;2023-05-29T14:36:41;5.47;;;3.17;;
25917;SDS011;13899;51.174;4.456;2023-05-29T14:39:09;3.83;;;1.42;;
25917;SDS011;13899;51.174;4.456;2023-05-29T14:41:36;3.72;;;1.50;;
25917;SDS011;13899;51.174;4.456;2023-05-29T14:44:02;7.63;;;2.53;;
25917;SDS011;13899;51.174;4.456;2023-05-29T14:46:28;3.67;;;1.30;;
25917;SDS011;13899;51.174;4.456;2023-05-29T14:49:00;6.15;;;1.50;;
25917;SDS011;13899;51.174;4.456;2023-05-29T14:51:26;4.50;;;1.60;;
25917;SDS011;13899;51.174;4.456;2023-05-29T14:53:52;7.70;;;2.03;;
25917;SDS011;13899;51.174;4.456;2023-05-29T14:56:19;6.40;;;1.85;;
25917;SDS011;13899;51.174;4.456;2023-05-29T14:58:46;6.05;;;1.83;;
25917;SDS011;13899;51.174;4.456;2023-05-29T15:01:13;4.63;;;1.92;;
25917;SDS011;13899;51.174;4.456;2023-05-29T15:03:40;4.82;;;1.52;;
25917;SDS011;13899;51.174;4.456;2023-05-29T15:06:06;9.43;;;2.07;;
25917;SDS011;13899;51.174;4.456;2023-05-29T15:08:32;6.18;;;1.88;;
25917;SDS011;13899;51.174;4.456;2023-05-29T15:11:01;5.75;;;2.53;;
25917;SDS011;13899;51.174;4.456;2023-05-29T15:13:30;4.97;;;1.50;;
25917;SDS011;13899;51.174;4.456;2023-05-29T15:15:56;5.43;;;2.20;;
25917;SDS011;13899;51.174;4.456;2023-05-29T15:18:25;4.50;;;1.65;;
25917;SDS011;13899;51.174;4.456;2023-05-29T15:20:53;4.57;;;2.08;;
25917;SDS011;13899;51.174;4.456;2023-05-29T15:23:18;4.83;;;2.47;;